sensor_id;sensor_type;location;lat;lon;timestamp;temperature;humidity
70986;DHT22;58645;43.068;25.610;2022-09-17T00:01:57;18.30;99.90
70986;DHT22;58645;43.068;25.610;2022-09-17T00:04:23;18.40;99.90
70986;DHT22;58645;43.068;25.610;2022-09-17T00:06:49;18.40;99.90
70986;DHT22;58645;43.068;25.610;2022-09-17T00:09:15;18.30;99.90
70986;DHT22;58645;43.068;25.610;2022-09-17T00:11:42;18.30;99.90
70986;DHT22;58645;43.068;25.610;2022-09-17T00:14:13;18.30;99.90
70986;DHT22;58645;43.068;25.610;2022-09-17T00:16:43;18.40;99.90
70986;DHT22;58645;43.068;25.610;2022-09-17T00:19:19;18.40;99.90
70986;DHT22;58645;43.068;25.610;2022-09-17T00:21:47;18.50;99.90
70986;DHT22;58645;43.068;25.610;2022-09-17T00:24:14;18.50;99.90
70986;DHT22;58645;43.068;25.610;2022-09-17T00:26:41;18.50;99.90
70986;DHT22;58645;43.068;25.610;2022-09-17T00:29:07;18.50;99.90
70986;DHT22;58645;43.068;25.610;2022-09-17T00:31:33;18.50;99.90
70986;DHT22;58645;43.068;25.610;2022-09-17T00:34:00;18.50;99.90
70986;DHT22;58645;43.068;25.610;2022-09-17T00:36:27;18.50;99.90
70986;DHT22;58645;43.068;25.610;2022-09-17T00:38:55;18.60;99.90
70986;DHT22;58645;43.068;25.610;2022-09-17T00:41:22;18.60;99.90
70986;DHT22;58645;43.068;25.610;2022-09-17T00:43:50;18.60;99.90
70986;DHT22;58645;43.068;25.610;2022-09-17T00:46:32;18.70;99.90
70986;DHT22;58645;43.068;25.610;2022-09-17T00:49:05;18.80;99.90
70986;DHT22;58645;43.068;25.610;2022-09-17T00:51:50;18.80;99.90
70986;DHT22;58645;43.068;25.610;2022-09-17T00:54:19;18.80;99.90
70986;DHT22;58645;43.068;25.610;2022-09-17T00:56:46;18.80;99.90
70986;DHT22;58645;43.068;25.610;2022-09-17T00:59:13;18.80;99.90
70986;DHT22;58645;43.068;25.610;2022-09-17T01:01:39;18.80;99.90
70986;DHT22;58645;43.068;25.610;2022-09-17T01:04:05;18.80;99.90
70986;DHT22;58645;43.068;25.610;2022-09-17T01:06:37;18.80;99.90
70986;DHT22;58645;43.068;25.610;2022-09-17T01:17:34;18.60;99.90
70986;DHT22;58645;43.068;25.610;2022-09-17T01:23:11;18.50;99.90
70986;DHT22;58645;43.068;25.610;2022-09-17T01:34:44;18.40;99.90
70986;DHT22;58645;43.068;25.610;2022-09-17T01:42:23;18.30;99.90
70986;DHT22;58645;43.068;25.610;2022-09-17T01:44:55;18.20;99.90
70986;DHT22;58645;43.068;25.610;2022-09-17T01:47:43;18.10;99.90
70986;DHT22;58645;43.068;25.610;2022-09-17T01:50:38;18.10;99.90
70986;DHT22;58645;43.068;25.610;2022-09-17T01:53:06;18.20;99.90
70986;DHT22;58645;43.068;25.610;2022-09-17T01:55:36;18.20;99.90
70986;DHT22;58645;43.068;25.610;2022-09-17T02:00:52;18.10;99.90
70986;DHT22;58645;43.068;25.610;2022-09-17T02:03:42;18.10;99.90
70986;DHT22;58645;43.068;25.610;2022-09-17T02:06:14;18.10;99.90
70986;DHT22;58645;43.068;25.610;2022-09-17T02:08:52;18.10;99.90
70986;DHT22;58645;43.068;25.610;2022-09-17T02:11:19;18.10;99.90
70986;DHT22;58645;43.068;25.610;2022-09-17T02:13:56;18.10;99.90
70986;DHT22;58645;43.068;25.610;2022-09-17T02:16:29;18.20;99.90
70986;DHT22;58645;43.068;25.610;2022-09-17T02:21:47;18.30;99.90
70986;DHT22;58645;43.068;25.610;2022-09-17T02:24:23;18.40;99.90
70986;DHT22;58645;43.068;25.610;2022-09-17T02:29:38;18.40;99.90
70986;DHT22;58645;43.068;25.610;2022-09-17T02:32:06;18.50;99.90
70986;DHT22;58645;43.068;25.610;2022-09-17T02:34:32;18.50;99.90
70986;DHT22;58645;43.068;25.610;2022-09-17T02:36:58;18.50;99.90
70986;DHT22;58645;43.068;25.610;2022-09-17T02:39:24;18.60;99.90
70986;DHT22;58645;43.068;25.610;2022-09-17T02:50:01;18.60;99.90
70986;DHT22;58645;43.068;25.610;2022-09-17T02:55:17;18.60;99.90
70986;DHT22;58645;43.068;25.610;2022-09-17T02:58:58;18.60;99.90
70986;DHT22;58645;43.068;25.610;2022-09-17T03:01:24;18.50;99.90
70986;DHT22;58645;43.068;25.610;2022-09-17T03:03:53;18.50;99.90
70986;DHT22;58645;43.068;25.610;2022-09-17T03:06:20;18.50;99.90
70986;DHT22;58645;43.068;25.610;2022-09-17T03:08:49;18.50;99.90
70986;DHT22;58645;43.068;25.610;2022-09-17T03:11:15;18.50;99.90
70986;DHT22;58645;43.068;25.610;2022-09-17T03:13:41;18.50;99.90
70986;DHT22;58645;43.068;25.610;2022-09-17T03:16:07;18.50;99.90
70986;DHT22;58645;43.068;25.610;2022-09-17T03:18:33;18.40;99.90
70986;DHT22;58645;43.068;25.610;2022-09-17T03:20:59;18.40;99.90
70986;DHT22;58645;43.068;25.610;2022-09-17T03:23:24;18.40;99.90
70986;DHT22;58645;43.068;25.610;2022-09-17T03:25:52;18.40;99.90
70986;DHT22;58645;43.068;25.610;2022-09-17T03:28:18;18.30;99.90
70986;DHT22;58645;43.068;25.610;2022-09-17T03:30:44;18.30;99.90
70986;DHT22;58645;43.068;25.610;2022-09-17T03:33:10;18.20;99.90
70986;DHT22;58645;43.068;25.610;2022-09-17T03:35:36;18.30;99.90
70986;DHT22;58645;43.068;25.610;2022-09-17T03:38:03;18.30;99.90
70986;DHT22;58645;43.068;25.610;2022-09-17T03:40:28;18.20;99.90
70986;DHT22;58645;43.068;25.610;2022-09-17T03:42:54;18.20;99.90
70986;DHT22;58645;43.068;25.610;2022-09-17T03:45:20;18.10;99.90
70986;DHT22;58645;43.068;25.610;2022-09-17T03:47:46;18.00;99.90
70986;DHT22;58645;43.068;25.610;2022-09-17T03:50:12;18.00;99.90
70986;DHT22;58645;43.068;25.610;2022-09-17T03:52:38;18.00;99.90
70986;DHT22;58645;43.068;25.610;2022-09-17T03:55:04;18.00;99.90
70986;DHT22;58645;43.068;25.610;2022-09-17T03:57:30;18.00;99.90
70986;DHT22;58645;43.068;25.610;2022-09-17T03:59:56;18.10;99.90
70986;DHT22;58645;43.068;25.610;2022-09-17T04:02:21;18.10;99.90
70986;DHT22;58645;43.068;25.610;2022-09-17T04:04:47;18.10;99.90
70986;DHT22;58645;43.068;25.610;2022-09-17T04:07:13;18.10;99.90
70986;DHT22;58645;43.068;25.610;2022-09-17T04:09:40;18.00;99.90
70986;DHT22;58645;43.068;25.610;2022-09-17T04:12:05;18.00;99.90
70986;DHT22;58645;43.068;25.610;2022-09-17T04:14:31;17.90;99.90
70986;DHT22;58645;43.068;25.610;2022-09-17T04:16:57;17.90;99.90
70986;DHT22;58645;43.068;25.610;2022-09-17T04:19:23;17.90;99.90
70986;DHT22;58645;43.068;25.610;2022-09-17T04:21:49;18.00;99.90
70986;DHT22;58645;43.068;25.610;2022-09-17T04:24:15;18.00;99.90
70986;DHT22;58645;43.068;25.610;2022-09-17T04:26:41;18.00;99.90
70986;DHT22;58645;43.068;25.610;2022-09-17T04:29:07;18.20;99.90
70986;DHT22;58645;43.068;25.610;2022-09-17T04:31:32;18.30;99.90
70986;DHT22;58645;43.068;25.610;2022-09-17T04:33:58;18.50;99.90
70986;DHT22;58645;43.068;25.610;2022-09-17T04:36:24;18.70;99.90
70986;DHT22;58645;43.068;25.610;2022-09-17T04:38:49;18.80;99.90
70986;DHT22;58645;43.068;25.610;2022-09-17T04:41:15;19.00;99.90
70986;DHT22;58645;43.068;25.610;2022-09-17T04:43:41;19.10;99.90
70986;DHT22;58645;43.068;25.610;2022-09-17T04:46:06;19.30;99.90
70986;DHT22;58645;43.068;25.610;2022-09-17T04:48:32;19.40;99.90
70986;DHT22;58645;43.068;25.610;2022-09-17T04:50:58;19.60;99.90
70986;DHT22;58645;43.068;25.610;2022-09-17T04:53:24;19.70;99.90
70986;DHT22;58645;43.068;25.610;2022-09-17T04:55:49;19.90;99.90
70986;DHT22;58645;43.068;25.610;2022-09-17T04:58:15;20.20;99.90
70986;DHT22;58645;43.068;25.610;2022-09-17T05:00:41;20.70;99.90
70986;DHT22;58645;43.068;25.610;2022-09-17T05:03:07;21.10;99.90
70986;DHT22;58645;43.068;25.610;2022-09-17T05:05:32;21.60;99.90
70986;DHT22;58645;43.068;25.610;2022-09-17T05:07:58;21.80;99.90
70986;DHT22;58645;43.068;25.610;2022-09-17T05:10:24;22.30;99.90
70986;DHT22;58645;43.068;25.610;2022-09-17T05:12:55;22.60;99.90
70986;DHT22;58645;43.068;25.610;2022-09-17T05:15:22;23.30;98.80
70986;DHT22;58645;43.068;25.610;2022-09-17T05:17:48;23.90;93.70
70986;DHT22;58645;43.068;25.610;2022-09-17T05:20:15;24.50;90.20
70986;DHT22;58645;43.068;25.610;2022-09-17T05:22:48;25.00;85.80
70986;DHT22;58645;43.068;25.610;2022-09-17T05:25:17;25.20;82.90
70986;DHT22;58645;43.068;25.610;2022-09-17T05:27:43;25.80;78.50
70986;DHT22;58645;43.068;25.610;2022-09-17T05:30:09;26.20;76.20
70986;DHT22;58645;43.068;25.610;2022-09-17T05:32:36;26.40;73.80
70986;DHT22;58645;43.068;25.610;2022-09-17T05:35:04;26.20;73.20
70986;DHT22;58645;43.068;25.610;2022-09-17T05:37:30;26.00;74.20
70986;DHT22;58645;43.068;25.610;2022-09-17T05:39:56;26.60;72.80
70986;DHT22;58645;43.068;25.610;2022-09-17T05:42:22;26.80;69.40
70986;DHT22;58645;43.068;25.610;2022-09-17T05:44:47;27.00;68.20
70986;DHT22;58645;43.068;25.610;2022-09-17T05:47:13;27.40;66.20
70986;DHT22;58645;43.068;25.610;2022-09-17T05:49:39;27.90;65.30
70986;DHT22;58645;43.068;25.610;2022-09-17T05:52:05;28.00;64.10
70986;DHT22;58645;43.068;25.610;2022-09-17T05:54:30;27.80;62.10
70986;DHT22;58645;43.068;25.610;2022-09-17T05:56:56;27.50;64.80
70986;DHT22;58645;43.068;25.610;2022-09-17T05:59:22;27.00;66.20
70986;DHT22;58645;43.068;25.610;2022-09-17T06:01:48;26.60;67.00
70986;DHT22;58645;43.068;25.610;2022-09-17T06:04:15;26.40;67.70
70986;DHT22;58645;43.068;25.610;2022-09-17T06:06:42;26.30;68.30
70986;DHT22;58645;43.068;25.610;2022-09-17T06:09:08;26.40;66.80
70986;DHT22;58645;43.068;25.610;2022-09-17T06:11:35;26.70;67.00
70986;DHT22;58645;43.068;25.610;2022-09-17T06:14:02;26.60;65.30
70986;DHT22;58645;43.068;25.610;2022-09-17T06:16:28;27.00;62.80
70986;DHT22;58645;43.068;25.610;2022-09-17T06:18:54;27.50;60.40
70986;DHT22;58645;43.068;25.610;2022-09-17T06:21:20;27.70;59.30
70986;DHT22;58645;43.068;25.610;2022-09-17T06:23:50;28.10;58.50
70986;DHT22;58645;43.068;25.610;2022-09-17T06:26:16;28.50;56.70
70986;DHT22;58645;43.068;25.610;2022-09-17T06:28:42;29.00;55.10
70986;DHT22;58645;43.068;25.610;2022-09-17T06:31:10;29.50;54.50
70986;DHT22;58645;43.068;25.610;2022-09-17T06:33:36;29.70;52.80
70986;DHT22;58645;43.068;25.610;2022-09-17T06:36:05;29.80;52.90
70986;DHT22;58645;43.068;25.610;2022-09-17T06:38:33;29.60;53.00
70986;DHT22;58645;43.068;25.610;2022-09-17T06:40:59;29.80;52.90
70986;DHT22;58645;43.068;25.610;2022-09-17T06:43:25;30.60;52.90
70986;DHT22;58645;43.068;25.610;2022-09-17T06:45:58;30.70;51.00
70986;DHT22;58645;43.068;25.610;2022-09-17T06:48:25;30.70;49.90
70986;DHT22;58645;43.068;25.610;2022-09-17T06:50:54;31.30;48.60
70986;DHT22;58645;43.068;25.610;2022-09-17T06:53:21;31.20;50.30
70986;DHT22;58645;43.068;25.610;2022-09-17T06:55:47;31.80;48.20
70986;DHT22;58645;43.068;25.610;2022-09-17T06:58:13;32.20;47.50
70986;DHT22;58645;43.068;25.610;2022-09-17T07:00:39;31.40;48.70
70986;DHT22;58645;43.068;25.610;2022-09-17T07:03:05;31.00;50.30
70986;DHT22;58645;43.068;25.610;2022-09-17T07:05:31;30.70;51.90
70986;DHT22;58645;43.068;25.610;2022-09-17T07:08:02;30.20;54.20
70986;DHT22;58645;43.068;25.610;2022-09-17T07:10:28;29.70;55.50
70986;DHT22;58645;43.068;25.610;2022-09-17T07:12:54;29.30;56.80
70986;DHT22;58645;43.068;25.610;2022-09-17T07:15:20;28.70;58.40
70986;DHT22;58645;43.068;25.610;2022-09-17T07:17:46;28.50;60.20
70986;DHT22;58645;43.068;25.610;2022-09-17T07:20:13;28.20;60.70
70986;DHT22;58645;43.068;25.610;2022-09-17T07:22:39;27.90;61.20
70986;DHT22;58645;43.068;25.610;2022-09-17T07:25:05;27.70;62.10
70986;DHT22;58645;43.068;25.610;2022-09-17T07:27:31;27.50;63.50
70986;DHT22;58645;43.068;25.610;2022-09-17T07:29:57;27.50;63.40
70986;DHT22;58645;43.068;25.610;2022-09-17T07:32:23;27.50;64.20
70986;DHT22;58645;43.068;25.610;2022-09-17T07:34:49;27.60;62.60
70986;DHT22;58645;43.068;25.610;2022-09-17T07:37:16;27.70;63.60
70986;DHT22;58645;43.068;25.610;2022-09-17T07:39:42;28.10;62.00
70986;DHT22;58645;43.068;25.610;2022-09-17T07:42:09;28.50;60.90
70986;DHT22;58645;43.068;25.610;2022-09-17T07:44:35;28.60;60.80
70986;DHT22;58645;43.068;25.610;2022-09-17T07:47:00;28.50;60.70
70986;DHT22;58645;43.068;25.610;2022-09-17T07:49:26;28.30;61.40
70986;DHT22;58645;43.068;25.610;2022-09-17T07:51:52;28.10;62.20
70986;DHT22;58645;43.068;25.610;2022-09-17T07:54:19;28.00;64.20
70986;DHT22;58645;43.068;25.610;2022-09-17T07:56:45;27.90;64.20
70986;DHT22;58645;43.068;25.610;2022-09-17T07:59:11;28.00;63.60
70986;DHT22;58645;43.068;25.610;2022-09-17T08:01:36;28.00;64.20
70986;DHT22;58645;43.068;25.610;2022-09-17T08:04:03;28.20;63.30
70986;DHT22;58645;43.068;25.610;2022-09-17T08:06:29;28.60;62.10
70986;DHT22;58645;43.068;25.610;2022-09-17T08:08:56;29.10;60.60
70986;DHT22;58645;43.068;25.610;2022-09-17T08:11:24;29.50;59.60
70986;DHT22;58645;43.068;25.610;2022-09-17T08:13:52;29.70;58.80
70986;DHT22;58645;43.068;25.610;2022-09-17T08:16:20;29.80;57.80
70986;DHT22;58645;43.068;25.610;2022-09-17T08:18:47;29.60;57.30
70986;DHT22;58645;43.068;25.610;2022-09-17T08:21:17;29.80;55.80
70986;DHT22;58645;43.068;25.610;2022-09-17T08:23:44;30.10;56.10
70986;DHT22;58645;43.068;25.610;2022-09-17T08:26:17;30.10;55.60
70986;DHT22;58645;43.068;25.610;2022-09-17T08:28:49;30.00;56.00
70986;DHT22;58645;43.068;25.610;2022-09-17T08:31:16;30.10;55.50
70986;DHT22;58645;43.068;25.610;2022-09-17T08:33:43;29.90;54.70
70986;DHT22;58645;43.068;25.610;2022-09-17T08:36:11;29.70;55.50
70986;DHT22;58645;43.068;25.610;2022-09-17T08:38:38;29.50;55.50
70986;DHT22;58645;43.068;25.610;2022-09-17T08:43:48;29.40;55.70
70986;DHT22;58645;43.068;25.610;2022-09-17T08:46:15;29.60;54.30
70986;DHT22;58645;43.068;25.610;2022-09-17T08:48:44;29.80;54.60
70986;DHT22;58645;43.068;25.610;2022-09-17T08:54:26;30.30;52.20
70986;DHT22;58645;43.068;25.610;2022-09-17T08:57:15;30.60;51.30
70986;DHT22;58645;43.068;25.610;2022-09-17T08:59:51;30.80;52.00
70986;DHT22;58645;43.068;25.610;2022-09-17T09:03:04;31.80;50.40
70986;DHT22;58645;43.068;25.610;2022-09-17T09:05:51;33.90;45.10
70986;DHT22;58645;43.068;25.610;2022-09-17T09:08:32;35.10;41.40
70986;DHT22;58645;43.068;25.610;2022-09-17T09:11:05;36.10;38.50
70986;DHT22;58645;43.068;25.610;2022-09-17T09:13:35;36.80;38.40
70986;DHT22;58645;43.068;25.610;2022-09-17T09:16:14;36.80;36.40
70986;DHT22;58645;43.068;25.610;2022-09-17T09:18:41;37.40;35.80
70986;DHT22;58645;43.068;25.610;2022-09-17T09:21:28;37.30;35.00
70986;DHT22;58645;43.068;25.610;2022-09-17T09:24:22;36.60;36.00
70986;DHT22;58645;43.068;25.610;2022-09-17T09:27:08;36.00;37.50
70986;DHT22;58645;43.068;25.610;2022-09-17T09:35:28;36.60;30.70
70986;DHT22;58645;43.068;25.610;2022-09-17T09:44:13;35.80;31.10
70986;DHT22;58645;43.068;25.610;2022-09-17T09:46:39;35.50;32.00
70986;DHT22;58645;43.068;25.610;2022-09-17T09:52:19;36.80;30.30
70986;DHT22;58645;43.068;25.610;2022-09-17T10:00:34;36.60;30.10
70986;DHT22;58645;43.068;25.610;2022-09-17T10:03:22;37.20;29.60
70986;DHT22;58645;43.068;25.610;2022-09-17T10:06:06;37.40;29.20
70986;DHT22;58645;43.068;25.610;2022-09-17T10:11:24;37.80;27.60
70986;DHT22;58645;43.068;25.610;2022-09-17T10:13:51;38.30;27.20
70986;DHT22;58645;43.068;25.610;2022-09-17T10:16:23;38.60;26.00
70986;DHT22;58645;43.068;25.610;2022-09-17T10:21:39;38.10;25.20
70986;DHT22;58645;43.068;25.610;2022-09-17T10:24:27;37.90;23.90
70986;DHT22;58645;43.068;25.610;2022-09-17T10:27:15;37.50;24.90
70986;DHT22;58645;43.068;25.610;2022-09-17T10:29:50;36.80;25.60
70986;DHT22;58645;43.068;25.610;2022-09-17T10:32:22;35.90;26.60
70986;DHT22;58645;43.068;25.610;2022-09-17T10:35:24;35.30;28.10
70986;DHT22;58645;43.068;25.610;2022-09-17T10:37:51;35.00;29.20
70986;DHT22;58645;43.068;25.610;2022-09-17T10:42:50;36.40;27.50
70986;DHT22;58645;43.068;25.610;2022-09-17T10:45:27;37.20;26.70
70986;DHT22;58645;43.068;25.610;2022-09-17T10:47:55;36.90;25.70
70986;DHT22;58645;43.068;25.610;2022-09-17T10:50:31;36.20;27.10
70986;DHT22;58645;43.068;25.610;2022-09-17T10:53:04;35.50;28.00
70986;DHT22;58645;43.068;25.610;2022-09-17T10:55:34;35.10;29.20
70986;DHT22;58645;43.068;25.610;2022-09-17T10:58:10;34.60;29.60
70986;DHT22;58645;43.068;25.610;2022-09-17T11:17:57;30.90;35.50
70986;DHT22;58645;43.068;25.610;2022-09-17T11:23:05;29.70;43.50
70986;DHT22;58645;43.068;25.610;2022-09-17T11:28:32;27.90;53.50
70986;DHT22;58645;43.068;25.610;2022-09-17T11:31:20;27.20;56.60
70986;DHT22;58645;43.068;25.610;2022-09-17T11:40:07;25.50;63.60
70986;DHT22;58645;43.068;25.610;2022-09-17T11:42:20;25.20;66.70
70986;DHT22;58645;43.068;25.610;2022-09-17T11:44:59;25.00;66.60
70986;DHT22;58645;43.068;25.610;2022-09-17T11:47:39;24.90;68.60
70986;DHT22;58645;43.068;25.610;2022-09-17T11:50:18;24.80;67.30
70986;DHT22;58645;43.068;25.610;2022-09-17T11:55:52;24.60;68.10
70986;DHT22;58645;43.068;25.610;2022-09-17T11:58:42;24.50;68.40
70986;DHT22;58645;43.068;25.610;2022-09-17T12:01:13;24.30;70.00
70986;DHT22;58645;43.068;25.610;2022-09-17T12:03:48;23.80;71.90
70986;DHT22;58645;43.068;25.610;2022-09-17T12:06:19;23.50;73.50
70986;DHT22;58645;43.068;25.610;2022-09-17T12:11:58;22.60;80.60
70986;DHT22;58645;43.068;25.610;2022-09-17T12:14:28;22.20;84.80
70986;DHT22;58645;43.068;25.610;2022-09-17T12:16:59;21.80;87.90
70986;DHT22;58645;43.068;25.610;2022-09-17T12:19:36;21.50;91.50
70986;DHT22;58645;43.068;25.610;2022-09-17T12:22:12;21.20;99.20
70986;DHT22;58645;43.068;25.610;2022-09-17T12:24:42;21.10;99.90
70986;DHT22;58645;43.068;25.610;2022-09-17T12:44:02;20.80;99.90
70986;DHT22;58645;43.068;25.610;2022-09-17T12:49:37;20.80;99.90
70986;DHT22;58645;43.068;25.610;2022-09-17T12:52:29;20.70;99.90
70986;DHT22;58645;43.068;25.610;2022-09-17T13:00:51;20.80;99.90
70986;DHT22;58645;43.068;25.610;2022-09-17T13:12:28;21.10;99.90
70986;DHT22;58645;43.068;25.610;2022-09-17T13:20:26;21.30;99.90
70986;DHT22;58645;43.068;25.610;2022-09-17T13:22:55;21.50;99.90
70986;DHT22;58645;43.068;25.610;2022-09-17T13:25:22;21.70;99.90
70986;DHT22;58645;43.068;25.610;2022-09-17T13:27:49;21.80;99.90
70986;DHT22;58645;43.068;25.610;2022-09-17T13:30:19;22.00;99.90
70986;DHT22;58645;43.068;25.610;2022-09-17T13:32:50;22.10;99.90
70986;DHT22;58645;43.068;25.610;2022-09-17T13:40:34;22.30;99.90
70986;DHT22;58645;43.068;25.610;2022-09-17T13:45:31;22.70;99.90
70986;DHT22;58645;43.068;25.610;2022-09-17T13:48:04;22.90;99.90
70986;DHT22;58645;43.068;25.610;2022-09-17T13:50:34;23.00;99.90
70986;DHT22;58645;43.068;25.610;2022-09-17T13:55:50;23.00;99.90
70986;DHT22;58645;43.068;25.610;2022-09-17T14:01:04;22.90;99.90
70986;DHT22;58645;43.068;25.610;2022-09-17T14:08:48;22.50;99.90
70986;DHT22;58645;43.068;25.610;2022-09-17T14:13:52;22.50;99.90
70986;DHT22;58645;43.068;25.610;2022-09-17T14:32:36;22.80;99.90
70986;DHT22;58645;43.068;25.610;2022-09-17T14:35:32;22.80;99.90
70986;DHT22;58645;43.068;25.610;2022-09-17T14:44:17;22.70;99.90
70986;DHT22;58645;43.068;25.610;2022-09-17T14:46:42;22.70;99.90
70986;DHT22;58645;43.068;25.610;2022-09-17T14:49:22;22.60;99.90
70986;DHT22;58645;43.068;25.610;2022-09-17T14:51:52;22.50;99.90
70986;DHT22;58645;43.068;25.610;2022-09-17T15:04:52;22.50;99.90
70986;DHT22;58645;43.068;25.610;2022-09-17T15:07:19;22.50;99.90
70986;DHT22;58645;43.068;25.610;2022-09-17T15:09:45;22.40;99.90
70986;DHT22;58645;43.068;25.610;2022-09-17T15:12:11;22.40;99.90
70986;DHT22;58645;43.068;25.610;2022-09-17T15:14:40;22.30;99.90
70986;DHT22;58645;43.068;25.610;2022-09-17T15:17:05;22.30;99.90
70986;DHT22;58645;43.068;25.610;2022-09-17T15:19:38;22.20;99.90
70986;DHT22;58645;43.068;25.610;2022-09-17T15:22:09;22.10;99.90
70986;DHT22;58645;43.068;25.610;2022-09-17T15:24:40;22.00;99.90
70986;DHT22;58645;43.068;25.610;2022-09-17T15:30:22;22.00;99.90
70986;DHT22;58645;43.068;25.610;2022-09-17T15:32:58;22.10;99.90
70986;DHT22;58645;43.068;25.610;2022-09-17T15:35:29;22.00;99.90
70986;DHT22;58645;43.068;25.610;2022-09-17T15:38:00;22.00;99.90
70986;DHT22;58645;43.068;25.610;2022-09-17T15:40:33;21.90;99.90
70986;DHT22;58645;43.068;25.610;2022-09-17T15:43:16;21.90;99.90
70986;DHT22;58645;43.068;25.610;2022-09-17T15:45:44;21.80;99.90
70986;DHT22;58645;43.068;25.610;2022-09-17T15:50:55;21.60;99.90
70986;DHT22;58645;43.068;25.610;2022-09-17T15:53:22;21.60;99.90
70986;DHT22;58645;43.068;25.610;2022-09-17T15:58:52;21.60;99.90
70986;DHT22;58645;43.068;25.610;2022-09-17T16:04:16;21.50;99.90
70986;DHT22;58645;43.068;25.610;2022-09-17T16:12:02;21.50;99.90
70986;DHT22;58645;43.068;25.610;2022-09-17T16:14:28;21.50;99.90
70986;DHT22;58645;43.068;25.610;2022-09-17T16:16:54;21.50;99.90
70986;DHT22;58645;43.068;25.610;2022-09-17T16:19:21;21.50;99.90
70986;DHT22;58645;43.068;25.610;2022-09-17T16:21:47;21.50;99.90
70986;DHT22;58645;43.068;25.610;2022-09-17T16:24:13;21.50;99.90
70986;DHT22;58645;43.068;25.610;2022-09-17T16:26:39;21.50;99.90
70986;DHT22;58645;43.068;25.610;2022-09-17T16:29:09;21.50;99.90
70986;DHT22;58645;43.068;25.610;2022-09-17T16:31:36;21.50;99.90
70986;DHT22;58645;43.068;25.610;2022-09-17T16:34:02;21.50;99.90
70986;DHT22;58645;43.068;25.610;2022-09-17T16:36:27;21.50;99.90
70986;DHT22;58645;43.068;25.610;2022-09-17T16:38:55;21.50;99.90
70986;DHT22;58645;43.068;25.610;2022-09-17T16:41:21;21.50;99.90
70986;DHT22;58645;43.068;25.610;2022-09-17T16:43:47;21.50;99.90
70986;DHT22;58645;43.068;25.610;2022-09-17T16:46:13;21.40;99.90
70986;DHT22;58645;43.068;25.610;2022-09-17T16:48:39;21.40;99.90
70986;DHT22;58645;43.068;25.610;2022-09-17T16:51:10;21.30;99.90
70986;DHT22;58645;43.068;25.610;2022-09-17T16:53:36;21.30;99.90
70986;DHT22;58645;43.068;25.610;2022-09-17T16:56:09;21.30;99.90
70986;DHT22;58645;43.068;25.610;2022-09-17T16:58:36;21.30;99.90
70986;DHT22;58645;43.068;25.610;2022-09-17T17:01:08;21.30;99.90
70986;DHT22;58645;43.068;25.610;2022-09-17T17:03:34;21.20;99.90
70986;DHT22;58645;43.068;25.610;2022-09-17T17:06:00;21.10;99.90
70986;DHT22;58645;43.068;25.610;2022-09-17T17:08:26;21.00;99.90
70986;DHT22;58645;43.068;25.610;2022-09-17T17:10:52;21.00;99.90
70986;DHT22;58645;43.068;25.610;2022-09-17T17:13:18;20.90;99.90
70986;DHT22;58645;43.068;25.610;2022-09-17T17:15:44;20.90;99.90
70986;DHT22;58645;43.068;25.610;2022-09-17T17:18:09;20.80;99.90
70986;DHT22;58645;43.068;25.610;2022-09-17T17:20:35;20.70;99.90
70986;DHT22;58645;43.068;25.610;2022-09-17T17:23:01;20.60;99.90
70986;DHT22;58645;43.068;25.610;2022-09-17T17:25:29;20.50;99.90
70986;DHT22;58645;43.068;25.610;2022-09-17T17:27:56;20.40;99.90
70986;DHT22;58645;43.068;25.610;2022-09-17T17:30:22;20.30;99.90
70986;DHT22;58645;43.068;25.610;2022-09-17T17:32:50;20.20;99.90
70986;DHT22;58645;43.068;25.610;2022-09-17T17:35:16;20.10;99.90
70986;DHT22;58645;43.068;25.610;2022-09-17T17:37:42;19.90;99.90
70986;DHT22;58645;43.068;25.610;2022-09-17T17:40:08;19.90;99.90
70986;DHT22;58645;43.068;25.610;2022-09-17T17:42:35;19.70;99.90
70986;DHT22;58645;43.068;25.610;2022-09-17T17:45:04;19.70;99.90
70986;DHT22;58645;43.068;25.610;2022-09-17T17:47:30;19.70;99.90
70986;DHT22;58645;43.068;25.610;2022-09-17T17:49:56;19.60;99.90
70986;DHT22;58645;43.068;25.610;2022-09-17T17:52:22;19.60;99.90
70986;DHT22;58645;43.068;25.610;2022-09-17T17:54:48;19.50;99.90
70986;DHT22;58645;43.068;25.610;2022-09-17T17:57:13;19.40;99.90
70986;DHT22;58645;43.068;25.610;2022-09-17T17:59:39;19.40;99.90
70986;DHT22;58645;43.068;25.610;2022-09-17T18:02:05;19.40;99.90
70986;DHT22;58645;43.068;25.610;2022-09-17T18:04:31;19.30;99.90
70986;DHT22;58645;43.068;25.610;2022-09-17T18:06:57;19.30;99.90
70986;DHT22;58645;43.068;25.610;2022-09-17T18:09:22;19.30;99.90
70986;DHT22;58645;43.068;25.610;2022-09-17T18:11:48;19.30;99.90
70986;DHT22;58645;43.068;25.610;2022-09-17T18:14:14;19.30;99.90
70986;DHT22;58645;43.068;25.610;2022-09-17T18:16:40;19.20;99.90
70986;DHT22;58645;43.068;25.610;2022-09-17T18:19:06;19.20;99.90
70986;DHT22;58645;43.068;25.610;2022-09-17T18:21:32;19.00;99.90
70986;DHT22;58645;43.068;25.610;2022-09-17T18:23:57;18.90;99.90
70986;DHT22;58645;43.068;25.610;2022-09-17T18:26:25;18.90;99.90
70986;DHT22;58645;43.068;25.610;2022-09-17T18:28:51;18.80;99.90
70986;DHT22;58645;43.068;25.610;2022-09-17T18:31:19;18.70;99.90
70986;DHT22;58645;43.068;25.610;2022-09-17T18:33:46;18.70;99.90
70986;DHT22;58645;43.068;25.610;2022-09-17T18:36:11;18.60;99.90
70986;DHT22;58645;43.068;25.610;2022-09-17T18:38:37;18.50;99.90
70986;DHT22;58645;43.068;25.610;2022-09-17T18:41:08;18.40;99.90
70986;DHT22;58645;43.068;25.610;2022-09-17T18:43:35;18.40;99.90
70986;DHT22;58645;43.068;25.610;2022-09-17T18:46:01;18.40;99.90
70986;DHT22;58645;43.068;25.610;2022-09-17T18:48:28;18.30;99.90
70986;DHT22;58645;43.068;25.610;2022-09-17T18:51:06;18.30;99.90
70986;DHT22;58645;43.068;25.610;2022-09-17T18:53:34;18.30;99.90
70986;DHT22;58645;43.068;25.610;2022-09-17T18:56:10;18.30;99.90
70986;DHT22;58645;43.068;25.610;2022-09-17T18:58:38;18.20;99.90
70986;DHT22;58645;43.068;25.610;2022-09-17T19:01:05;18.20;99.90
70986;DHT22;58645;43.068;25.610;2022-09-17T19:03:31;18.20;99.90
70986;DHT22;58645;43.068;25.610;2022-09-17T19:06:08;18.20;99.90
70986;DHT22;58645;43.068;25.610;2022-09-17T19:08:35;18.20;99.90
70986;DHT22;58645;43.068;25.610;2022-09-17T19:11:00;18.20;99.90
70986;DHT22;58645;43.068;25.610;2022-09-17T19:13:32;18.20;99.90
70986;DHT22;58645;43.068;25.610;2022-09-17T19:15:58;18.30;99.90